createdAt,value
2023-05-06T00:00:05.747Z,0.00
2023-05-06T00:01:05.814Z,0.00
2023-05-06T00:02:05.840Z,0.00
2023-05-06T00:03:05.833Z,0.00
2023-05-06T00:04:05.881Z,0.00
2023-05-06T00:05:05.689Z,0.00
2023-05-06T00:06:05.656Z,0.00
2023-05-06T00:07:05.697Z,0.00
2023-05-06T00:08:05.698Z,0.00
2023-05-06T00:09:05.638Z,0.00
2023-05-06T00:10:05.650Z,0.00
2023-05-06T00:11:05.625Z,0.00
2023-05-06T00:12:05.664Z,0.00
2023-05-06T00:13:05.630Z,0.00
2023-05-06T00:14:05.582Z,0.00
2023-05-06T00:15:05.608Z,0.00
2023-05-06T00:16:05.655Z,0.00
2023-05-06T00:17:05.597Z,0.00
2023-05-06T00:18:05.622Z,0.00
2023-05-06T00:19:05.518Z,0.00
2023-05-06T00:20:05.569Z,0.00
2023-05-06T00:21:05.496Z,0.00
2023-05-06T00:22:05.508Z,0.00
2023-05-06T00:23:05.482Z,0.00
2023-05-06T00:24:05.473Z,0.00
2023-05-06T00:25:05.484Z,0.00
2023-05-06T00:26:05.485Z,0.00
2023-05-06T00:27:05.441Z,0.00
2023-05-06T00:28:05.422Z,0.00
2023-05-06T00:29:05.415Z,0.00
2023-05-06T00:30:05.422Z,0.00
2023-05-06T00:31:05.398Z,0.00
2023-05-06T00:32:05.423Z,0.00
2023-05-06T00:33:05.443Z,0.00
2023-05-06T00:34:05.364Z,0.00
2023-05-06T00:35:05.341Z,0.00
2023-05-06T00:36:05.331Z,0.00
2023-05-06T00:37:05.310Z,0.00
2023-05-06T00:38:05.334Z,0.00
2023-05-06T00:39:05.286Z,0.00
2023-05-06T00:40:05.275Z,0.00
2023-05-06T00:41:05.284Z,0.00
2023-05-06T00:42:05.284Z,0.00
2023-05-06T00:43:05.253Z,0.00
2023-05-06T00:44:05.254Z,0.00
2023-05-06T00:45:05.227Z,0.00
2023-05-06T00:46:05.247Z,0.00
2023-05-06T00:47:05.212Z,0.00
2023-05-06T00:48:05.261Z,0.00
2023-05-06T00:49:05.206Z,0.00
2023-05-06T00:50:05.214Z,0.00
2023-05-06T00:51:05.161Z,0.00
2023-05-06T00:52:05.142Z,0.00
2023-05-06T00:53:05.134Z,0.00
2023-05-06T00:54:05.117Z,0.00
2023-05-06T00:55:05.145Z,0.00
2023-05-06T00:56:05.097Z,0.00
2023-05-06T00:57:05.091Z,0.00
2023-05-06T00:58:05.054Z,0.00
2023-05-06T00:59:05.062Z,0.00
2023-05-06T01:00:05.108Z,0.00
2023-05-06T01:01:05.105Z,0.00
2023-05-06T01:02:05.027Z,0.00
2023-05-06T01:03:05.067Z,0.00
2023-05-06T01:04:05.014Z,0.00
2023-05-06T01:05:05.046Z,0.00
2023-05-06T01:06:05.006Z,0.00
2023-05-06T01:07:04.968Z,0.00
2023-05-06T01:08:04.947Z,0.00
2023-05-06T01:09:04.962Z,0.00
2023-05-06T01:10:04.958Z,0.00
2023-05-06T01:11:04.921Z,0.00
2023-05-06T01:12:04.936Z,0.00
2023-05-06T01:13:04.944Z,0.00
2023-05-06T01:14:04.905Z,0.00
2023-05-06T01:15:04.947Z,0.00
2023-05-06T01:16:04.888Z,0.00
2023-05-06T01:17:04.908Z,0.00
2023-05-06T01:18:04.858Z,0.00
2023-05-06T01:19:04.821Z,0.00
2023-05-06T01:20:04.830Z,0.00
2023-05-06T01:21:04.828Z,0.00
2023-05-06T01:22:04.804Z,0.00
2023-05-06T01:23:04.778Z,0.00
2023-05-06T01:24:04.789Z,0.00
2023-05-06T01:25:04.860Z,0.00
2023-05-06T01:26:04.773Z,0.00
2023-05-06T01:27:04.772Z,0.00
2023-05-06T01:28:04.728Z,0.00
2023-05-06T01:29:04.738Z,0.00
2023-05-06T01:30:04.723Z,0.00
2023-05-06T01:31:04.753Z,0.00
2023-05-06T01:32:04.686Z,0.00
2023-05-06T01:33:04.722Z,0.00
2023-05-06T01:34:04.682Z,0.00
2023-05-06T01:35:04.638Z,0.00
2023-05-06T01:36:04.644Z,0.00
2023-05-06T01:37:04.639Z,0.00
2023-05-06T01:38:04.635Z,0.00
2023-05-06T01:39:04.629Z,0.00
2023-05-06T01:40:04.611Z,0.00
2023-05-06T01:41:04.589Z,0.00
2023-05-06T01:42:04.580Z,0.00
2023-05-06T01:43:04.581Z,0.00
2023-05-06T01:44:04.558Z,0.00
2023-05-06T01:45:04.518Z,0.00
2023-05-06T01:46:04.601Z,0.00
2023-05-06T01:47:04.508Z,0.00
2023-05-06T01:48:04.537Z,0.00
2023-05-06T01:49:04.524Z,0.00
2023-05-06T01:50:04.452Z,0.00
2023-05-06T01:51:04.476Z,0.00
2023-05-06T01:52:04.459Z,0.00
2023-05-06T01:53:04.461Z,0.00
2023-05-06T01:54:04.440Z,0.00
2023-05-06T01:55:04.426Z,0.00
2023-05-06T01:56:04.424Z,0.00
2023-05-06T01:57:04.399Z,0.00
2023-05-06T01:58:04.421Z,0.00
2023-05-06T01:59:04.372Z,0.00
2023-05-06T02:00:04.371Z,0.00
2023-05-06T02:01:04.374Z,0.00
2023-05-06T02:02:04.381Z,0.00
2023-05-06T02:03:04.394Z,0.00
2023-05-06T02:04:04.425Z,0.00
2023-05-06T02:05:04.313Z,0.00
2023-05-06T02:06:04.342Z,0.00
2023-05-06T02:07:04.310Z,0.00
2023-05-06T02:08:04.259Z,0.00
2023-05-06T02:09:04.278Z,0.00
2023-05-06T02:10:04.266Z,0.00
2023-05-06T02:11:04.245Z,0.00
2023-05-06T02:12:04.275Z,0.00
2023-05-06T02:13:04.252Z,0.00
2023-05-06T02:14:04.187Z,0.00
2023-05-06T02:15:04.220Z,0.00
2023-05-06T02:16:04.215Z,0.00
2023-05-06T02:17:04.166Z,0.00
2023-05-06T02:18:04.175Z,0.00
2023-05-06T02:19:04.156Z,0.00
2023-05-06T02:20:04.143Z,0.00
2023-05-06T02:21:04.123Z,0.00
2023-05-06T02:22:04.123Z,0.00
2023-05-06T02:23:04.099Z,0.00
2023-05-06T02:24:04.105Z,0.00
2023-05-06T02:25:04.119Z,0.00
2023-05-06T02:26:04.079Z,0.00
2023-05-06T02:27:04.096Z,0.00
2023-05-06T02:28:04.065Z,0.00
2023-05-06T02:29:04.151Z,0.00
2023-05-06T02:30:04.018Z,0.00
2023-05-06T02:31:04.023Z,0.00
2023-05-06T02:32:04.015Z,0.00
2023-05-06T02:33:04.014Z,0.00
2023-05-06T02:34:04.010Z,0.00
2023-05-06T02:35:03.969Z,0.00
2023-05-06T02:36:03.942Z,0.00
2023-05-06T02:37:03.965Z,0.00
2023-05-06T02:38:03.916Z,0.00
2023-05-06T02:39:03.904Z,0.00
2023-05-06T02:40:03.927Z,0.00
2023-05-06T02:41:03.873Z,0.00
2023-05-06T02:42:03.902Z,0.00
2023-05-06T02:43:03.934Z,0.00
2023-05-06T02:44:03.924Z,0.00
2023-05-06T02:45:03.849Z,0.00
2023-05-06T02:46:03.921Z,0.00
2023-05-06T02:47:03.818Z,0.00
2023-05-06T02:48:03.877Z,0.00
2023-05-06T02:49:03.788Z,0.00
2023-05-06T02:50:03.824Z,0.00
2023-05-06T02:51:03.787Z,0.00
2023-05-06T02:52:03.771Z,0.00
2023-05-06T02:53:03.747Z,0.00
2023-05-06T02:54:03.749Z,0.00
2023-05-06T02:55:03.718Z,0.00
2023-05-06T02:56:03.713Z,0.00
2023-05-06T02:57:03.682Z,0.00
2023-05-06T02:58:03.706Z,0.00
2023-05-06T02:59:03.681Z,0.00
2023-05-06T03:00:03.647Z,0.00
2023-05-06T03:01:03.744Z,0.00
2023-05-06T03:02:03.632Z,0.00
2023-05-06T03:03:03.618Z,0.00
2023-05-06T03:04:03.654Z,0.00
2023-05-06T03:05:03.584Z,4.00
2023-05-06T03:06:03.630Z,4.00
2023-05-06T03:07:03.587Z,4.00
2023-05-06T03:08:03.600Z,4.00
2023-05-06T03:09:03.538Z,0.00
2023-05-06T03:10:03.548Z,4.00
2023-05-06T03:11:03.557Z,4.00
2023-05-06T03:12:03.519Z,4.00
2023-05-06T03:13:03.639Z,4.00
2023-05-06T03:14:03.487Z,8.00
2023-05-06T03:15:03.487Z,8.00
2023-05-06T03:16:03.493Z,8.00
2023-05-06T03:17:03.462Z,8.00
2023-05-06T03:18:03.492Z,12.00
2023-05-06T03:19:03.452Z,12.00
2023-05-06T03:20:03.448Z,16.00
2023-05-06T03:21:03.466Z,16.00
2023-05-06T03:22:03.407Z,20.00
2023-05-06T03:23:03.390Z,24.00
2023-05-06T03:24:03.364Z,28.00
2023-05-06T03:25:03.407Z,36.00
2023-05-06T03:26:03.387Z,40.00
2023-05-06T03:27:03.378Z,44.00
2023-05-06T03:28:03.360Z,52.00
2023-05-06T03:29:03.330Z,56.00
2023-05-06T03:30:03.308Z,64.00
2023-05-06T03:31:03.356Z,72.00
2023-05-06T03:32:03.319Z,76.00
2023-05-06T03:33:03.386Z,88.00
2023-05-06T03:34:03.276Z,96.00
2023-05-06T03:35:03.276Z,104.00
2023-05-06T03:36:03.243Z,116.00
2023-05-06T03:37:03.250Z,124.00
2023-05-06T03:38:03.236Z,136.00
2023-05-06T03:39:03.224Z,144.00
2023-05-06T03:40:03.253Z,160.00
2023-05-06T03:41:03.181Z,172.00
2023-05-06T03:42:03.187Z,188.00
2023-05-06T03:43:03.149Z,204.00
2023-05-06T03:44:03.151Z,200.00
2023-05-06T03:45:03.262Z,204.00
2023-05-06T03:46:03.142Z,208.00
2023-05-06T03:47:03.099Z,212.00
2023-05-06T03:48:03.145Z,216.00
2023-05-06T03:49:03.094Z,216.00
2023-05-06T03:50:03.100Z,228.00
2023-05-06T03:51:03.065Z,264.00
2023-05-06T03:52:03.047Z,312.00
2023-05-06T03:53:03.025Z,356.00
2023-05-06T03:54:03.099Z,396.00
2023-05-06T03:55:03.024Z,420.00
2023-05-06T03:56:03.024Z,452.00
2023-05-06T03:57:03.013Z,492.00
2023-05-06T03:58:02.987Z,524.00
2023-05-06T03:59:02.988Z,568.00
2023-05-06T04:00:02.975Z,604.00
2023-05-06T04:01:02.930Z,624.00
2023-05-06T04:02:03.017Z,636.00
2023-05-06T04:03:03.011Z,704.00
2023-05-06T04:04:02.989Z,776.00
2023-05-06T04:05:02.922Z,720.00
2023-05-06T04:06:02.889Z,664.00
2023-05-06T04:07:02.869Z,684.00
2023-05-06T04:08:02.883Z,680.00
2023-05-06T04:09:02.852Z,632.00
2023-05-06T04:10:02.880Z,584.00
2023-05-06T04:11:02.824Z,492.00
2023-05-06T04:12:02.830Z,424.00
2023-05-06T04:13:02.866Z,456.00
2023-05-06T04:14:02.771Z,464.00
2023-05-06T04:15:02.796Z,500.00
2023-05-06T04:16:02.958Z,552.00
2023-05-06T04:17:02.789Z,696.00
2023-05-06T04:18:02.843Z,784.00
2023-05-06T04:19:04.404Z,768.00
2023-05-06T04:20:02.719Z,716.00
2023-05-06T04:21:02.706Z,744.00
2023-05-06T04:22:02.700Z,720.00
2023-05-06T04:23:02.715Z,744.00
2023-05-06T04:24:02.711Z,828.00
2023-05-06T04:25:02.674Z,908.00
2023-05-06T04:26:02.680Z,1008.00
2023-05-06T04:27:02.643Z,1112.00
2023-05-06T04:28:02.657Z,1200.00
2023-05-06T04:29:02.665Z,1144.00
2023-05-06T04:30:02.642Z,1260.00
2023-05-06T04:31:02.627Z,1256.00
2023-05-06T04:32:02.627Z,1428.00
2023-05-06T04:33:02.654Z,1536.00
2023-05-06T04:34:02.542Z,1524.00
2023-05-06T04:35:02.565Z,1432.00
2023-05-06T04:36:02.542Z,1592.00
2023-05-06T04:37:02.537Z,1468.00
2023-05-06T04:38:02.533Z,1492.00
2023-05-06T04:39:02.533Z,1512.00
2023-05-06T04:40:02.520Z,1636.00
2023-05-06T04:41:02.531Z,1796.00
2023-05-06T04:42:02.478Z,1820.00
2023-05-06T04:43:02.453Z,2064.00
2023-05-06T04:44:02.452Z,1964.00
2023-05-06T04:45:02.440Z,2148.00
2023-05-06T04:46:02.557Z,2308.00
2023-05-06T04:47:02.410Z,1924.00
2023-05-06T04:48:02.478Z,1928.00
2023-05-06T04:49:02.407Z,1892.00
2023-05-06T04:50:02.439Z,1692.00
2023-05-06T04:51:02.381Z,1556.00
2023-05-06T04:52:02.394Z,1476.00
2023-05-06T04:53:02.335Z,1556.00
2023-05-06T04:54:02.375Z,1632.00
2023-05-06T04:55:02.322Z,1864.00
2023-05-06T04:56:02.327Z,1676.00
2023-05-06T04:57:02.324Z,1476.00
2023-05-06T04:58:02.286Z,1460.00
2023-05-06T04:59:02.279Z,1500.00
2023-05-06T05:00:02.264Z,1620.00
2023-05-06T05:01:02.280Z,1668.00
2023-05-06T05:02:02.281Z,1740.00
2023-05-06T05:03:02.436Z,2212.00
2023-05-06T05:04:02.250Z,2352.00
2023-05-06T05:05:02.191Z,2416.00
2023-05-06T05:06:02.188Z,2488.00
2023-05-06T05:07:02.167Z,2644.00
2023-05-06T05:08:02.164Z,2204.00
2023-05-06T05:09:02.167Z,2112.00
2023-05-06T05:10:02.173Z,1824.00
2023-05-06T05:11:02.114Z,2084.00
2023-05-06T05:12:02.153Z,2052.00
2023-05-06T05:13:02.123Z,2092.00
2023-05-06T05:14:02.533Z,1924.00
2023-05-06T05:15:02.093Z,2200.00
2023-05-06T05:16:02.133Z,3064.00
2023-05-06T05:17:02.117Z,3420.00
2023-05-06T05:18:02.089Z,3064.00
2023-05-06T05:19:03.794Z,3452.00
2023-05-06T05:20:02.034Z,4164.00
2023-05-06T05:21:02.018Z,4536.00
2023-05-06T05:22:01.997Z,5288.00
2023-05-06T05:23:02.006Z,5484.00
2023-05-06T05:24:01.979Z,5292.00
2023-05-06T05:25:01.952Z,5476.00
2023-05-06T05:26:01.983Z,5636.00
2023-05-06T05:27:01.941Z,6072.00
2023-05-06T05:28:01.957Z,6324.00
2023-05-06T05:29:01.945Z,6864.00
2023-05-06T05:30:01.902Z,7788.00
2023-05-06T05:31:01.960Z,8340.00
2023-05-06T05:32:01.894Z,8708.00
2023-05-06T05:33:01.951Z,8852.00
2023-05-06T05:34:01.860Z,9360.00
2023-05-06T05:35:01.851Z,10096.00
2023-05-06T05:36:01.848Z,9856.00
2023-05-06T05:37:01.832Z,9420.00
2023-05-06T05:38:01.819Z,9652.00
2023-05-06T05:39:01.806Z,9248.00
2023-05-06T05:40:01.823Z,9736.00
2023-05-06T05:41:01.810Z,11032.00
2023-05-06T05:42:01.780Z,10852.00
2023-05-06T05:43:01.757Z,10100.00
2023-05-06T05:44:01.773Z,9876.00
2023-05-06T05:45:01.790Z,9960.00
2023-05-06T05:46:01.766Z,9556.00
2023-05-06T05:47:01.746Z,9060.00
2023-05-06T05:48:01.725Z,8672.00
2023-05-06T05:49:01.690Z,8900.00
2023-05-06T05:50:01.695Z,8828.00
2023-05-06T05:51:01.702Z,9036.00
2023-05-06T05:52:01.667Z,8808.00
2023-05-06T05:53:01.664Z,8092.00
2023-05-06T05:54:01.628Z,6908.00
2023-05-06T05:55:01.610Z,6644.00
2023-05-06T05:56:01.628Z,6876.00
2023-05-06T05:57:01.587Z,6996.00
2023-05-06T05:58:01.589Z,7088.00
2023-05-06T05:59:01.599Z,7424.00
2023-05-06T06:00:01.549Z,8336.00
2023-05-06T06:01:01.570Z,9676.00
2023-05-06T06:02:01.530Z,10000.00
2023-05-06T06:03:01.653Z,9312.00
2023-05-06T06:04:01.623Z,7248.00
2023-05-06T06:05:01.560Z,7468.00
2023-05-06T06:06:01.477Z,11040.00
2023-05-06T06:07:01.504Z,6044.00
2023-05-06T06:08:03.667Z,4868.00
2023-05-06T06:09:01.456Z,6796.00
2023-05-06T06:10:01.472Z,6960.00
2023-05-06T06:11:01.445Z,5792.00
2023-05-06T06:12:01.401Z,6836.00
2023-05-06T06:13:01.451Z,8384.00
2023-05-06T06:14:01.422Z,8676.00
2023-05-06T06:15:01.428Z,8808.00
2023-05-06T06:16:01.454Z,7752.00
2023-05-06T06:17:01.386Z,7732.00
2023-05-06T06:18:01.409Z,6604.00
2023-05-06T06:19:01.349Z,5608.00
2023-05-06T06:20:01.384Z,5008.00
2023-05-06T06:21:01.319Z,4000.00
2023-05-06T06:22:01.385Z,3052.00
2023-05-06T06:23:01.312Z,2748.00
2023-05-06T06:24:01.314Z,2984.00
2023-05-06T06:25:01.262Z,3636.00
2023-05-06T06:26:01.292Z,3856.00
2023-05-06T06:27:01.241Z,4120.00
2023-05-06T06:28:01.234Z,4916.00
2023-05-06T06:29:01.229Z,4244.00
2023-05-06T06:30:01.212Z,4152.00
2023-05-06T06:31:01.200Z,4840.00
2023-05-06T06:32:01.251Z,4824.00
2023-05-06T06:33:01.209Z,4988.00
2023-05-06T06:34:01.183Z,5680.00
2023-05-06T06:35:01.170Z,5884.00
2023-05-06T06:36:01.128Z,5408.00
2023-05-06T06:37:01.166Z,5144.00
2023-05-06T06:38:01.135Z,5544.00
2023-05-06T06:39:01.108Z,6344.00
2023-05-06T06:40:01.111Z,7748.00
2023-05-06T06:41:01.110Z,10124.00
2023-05-06T06:42:01.072Z,8476.00
2023-05-06T06:43:01.088Z,11424.00
2023-05-06T06:44:01.076Z,14920.00
2023-05-06T06:45:01.069Z,14824.00
2023-05-06T06:46:01.084Z,12500.00
2023-05-06T06:47:01.074Z,11280.00
2023-05-06T06:48:01.049Z,11816.00
2023-05-06T06:49:00.989Z,12496.00
2023-05-06T06:50:00.972Z,10636.00
2023-05-06T06:51:00.982Z,12900.00
2023-05-06T06:52:00.966Z,11764.00
2023-05-06T06:53:00.999Z,10984.00
2023-05-06T06:54:00.927Z,11476.00
2023-05-06T06:55:00.933Z,13644.00
2023-05-06T06:56:00.922Z,15936.00
2023-05-06T06:57:00.920Z,14516.00
2023-05-06T06:58:00.924Z,16864.00
2023-05-06T06:59:00.875Z,11828.00
2023-05-06T07:00:00.918Z,14844.00
2023-05-06T07:01:00.871Z,13260.00
2023-05-06T07:02:00.835Z,14708.00
2023-05-06T07:03:00.851Z,9556.00
2023-05-06T07:04:00.899Z,8304.00
2023-05-06T07:05:00.821Z,7852.00
2023-05-06T07:06:00.817Z,6372.00
2023-05-06T07:07:00.792Z,5092.00
2023-05-06T07:08:00.753Z,4576.00
2023-05-06T07:09:00.783Z,4424.00
2023-05-06T07:10:00.764Z,4784.00
2023-05-06T07:11:00.769Z,5808.00
2023-05-06T07:12:00.742Z,5852.00
2023-05-06T07:13:00.762Z,5884.00
2023-05-06T07:14:00.707Z,5476.00
2023-05-06T07:15:00.717Z,5492.00
2023-05-06T07:16:00.678Z,6688.00
2023-05-06T07:17:00.718Z,7900.00
2023-05-06T07:18:00.720Z,8600.00
2023-05-06T07:19:00.661Z,9388.00
2023-05-06T07:20:00.737Z,9236.00
2023-05-06T07:21:00.607Z,8968.00
2023-05-06T07:22:00.646Z,9568.00
2023-05-06T07:23:00.611Z,9868.00
2023-05-06T07:24:00.607Z,11092.00
2023-05-06T07:25:00.587Z,11704.00
2023-05-06T07:26:00.603Z,11040.00
2023-05-06T07:27:00.541Z,14020.00
2023-05-06T07:28:00.545Z,13556.00
2023-05-06T07:29:00.569Z,12200.00
2023-05-06T07:30:00.557Z,11424.00
2023-05-06T07:31:00.530Z,11964.00
2023-05-06T07:32:00.503Z,11896.00
2023-05-06T07:33:00.623Z,13676.00
2023-05-06T07:34:00.468Z,11860.00
2023-05-06T07:35:00.487Z,11516.00
2023-05-06T07:36:00.485Z,11764.00
2023-05-06T07:37:00.466Z,8832.00
2023-05-06T07:38:00.454Z,8832.00
2023-05-06T07:39:00.431Z,7616.00
2023-05-06T07:40:00.403Z,8440.00
2023-05-06T07:41:00.410Z,9380.00
2023-05-06T07:42:00.392Z,10200.00
2023-05-06T07:43:00.368Z,11716.00
2023-05-06T07:44:00.383Z,12604.00
2023-05-06T07:45:00.340Z,15252.00
2023-05-06T07:46:00.396Z,17408.00
2023-05-06T07:47:00.462Z,40704.00
2023-05-06T07:48:00.345Z,18816.00
2023-05-06T07:49:00.308Z,17856.00
2023-05-06T07:50:00.338Z,20544.00
2023-05-06T07:51:00.282Z,16416.00
2023-05-06T07:52:00.254Z,13304.00
2023-05-06T07:53:00.258Z,11432.00
2023-05-06T07:54:00.247Z,10500.00
2023-05-06T07:55:00.242Z,8868.00
2023-05-06T07:56:00.252Z,8636.00
2023-05-06T07:57:00.205Z,9572.00
2023-05-06T07:58:00.212Z,12212.00
2023-05-06T07:59:00.176Z,16000.00
2023-05-06T08:00:00.205Z,15188.00
2023-05-06T08:01:00.210Z,11548.00
2023-05-06T08:02:00.232Z,8944.00
2023-05-06T08:03:00.345Z,8120.00
2023-05-06T08:04:00.208Z,7912.00
2023-05-06T08:05:00.131Z,7900.00
2023-05-06T08:06:00.174Z,7456.00
2023-05-06T08:07:00.133Z,7224.00
2023-05-06T08:08:00.085Z,6296.00
2023-05-06T08:09:00.058Z,5988.00
2023-05-06T08:10:00.061Z,7948.00
2023-05-06T08:11:00.078Z,9280.00
2023-05-06T08:12:00.052Z,8988.00
2023-05-06T08:13:00.056Z,9452.00
2023-05-06T08:14:00.041Z,10352.00
2023-05-06T08:14:59.998Z,13188.00
2023-05-06T08:16:00.013Z,17376.00
2023-05-06T08:16:59.986Z,20416.00
2023-05-06T08:18:07.082Z,21504.00
2023-05-06T08:19:00.958Z,39552.00
2023-05-06T08:19:59.983Z,18496.00
2023-05-06T08:20:59.930Z,14660.00
2023-05-06T08:21:59.914Z,12984.00
2023-05-06T08:22:59.909Z,13884.00
2023-05-06T08:23:59.912Z,30048.00
2023-05-06T08:24:59.892Z,88416.00
2023-05-06T08:25:59.872Z,52416.00
2023-05-06T08:26:59.863Z,73920.00
2023-05-06T08:27:59.860Z,27968.00
2023-05-06T08:28:59.854Z,19616.00
2023-05-06T08:29:59.870Z,19008.00
2023-05-06T08:30:59.830Z,16480.00
2023-05-06T08:31:59.844Z,16800.00
2023-05-06T08:32:59.875Z,17248.00
2023-05-06T08:33:59.809Z,20608.00
2023-05-06T08:34:59.843Z,13240.00
2023-05-06T08:35:59.794Z,11644.00
2023-05-06T08:36:59.745Z,52288.00
2023-05-06T08:37:59.727Z,72352.00
2023-05-06T08:38:59.723Z,84864.00
2023-05-06T08:40:00.072Z,88352.00
2023-05-06T08:40:59.750Z,90624.00
2023-05-06T08:41:59.728Z,20544.00
2023-05-06T08:42:59.698Z,16352.00
2023-05-06T08:43:59.685Z,12924.00
2023-05-06T08:44:59.655Z,11196.00
2023-05-06T08:45:59.749Z,11520.00
2023-05-06T08:46:59.643Z,12956.00
2023-05-06T08:47:59.722Z,81952.00
2023-05-06T08:48:59.625Z,11732.00
2023-05-06T08:49:59.593Z,80576.00
2023-05-06T08:50:59.606Z,79840.00
2023-05-06T08:51:59.590Z,80704.00
2023-05-06T08:52:59.598Z,82624.00
2023-05-06T08:53:59.562Z,85504.00
2023-05-06T08:54:59.570Z,85888.00
2023-05-06T08:55:59.543Z,86112.00
2023-05-06T08:56:59.520Z,86496.00
2023-05-06T08:57:59.522Z,94208.00
2023-05-06T08:58:59.506Z,99904.00
2023-05-06T08:59:59.517Z,25952.00
2023-05-06T09:00:59.495Z,89376.00
2023-05-06T09:01:59.525Z,61024.00
2023-05-06T09:02:59.546Z,22016.00
2023-05-06T09:03:59.452Z,17248.00
2023-05-06T09:04:59.435Z,19328.00
2023-05-06T09:05:59.456Z,18848.00
2023-05-06T09:06:59.466Z,24640.00
2023-05-06T09:07:59.407Z,16800.00
2023-05-06T09:08:59.412Z,19008.00
2023-05-06T09:09:59.397Z,18208.00
2023-05-06T09:10:59.361Z,94400.00
2023-05-06T09:11:59.367Z,96448.00
2023-05-06T09:12:59.427Z,70624.00
2023-05-06T09:13:59.359Z,102816.00
2023-05-06T09:14:59.366Z,50208.00
2023-05-06T09:15:59.316Z,30304.00
2023-05-06T09:16:59.369Z,107296.00
2023-05-06T09:17:59.326Z,88384.00
2023-05-06T09:18:59.317Z,20096.00
2023-05-06T09:19:59.274Z,17184.00
2023-05-06T09:21:00.658Z,16320.00
2023-05-06T09:21:59.260Z,15732.00
2023-05-06T09:22:59.299Z,17216.00
2023-05-06T09:23:59.279Z,24352.00
2023-05-06T09:24:59.219Z,99968.00
2023-05-06T09:25:59.210Z,99424.00
2023-05-06T09:26:59.269Z,95040.00
2023-05-06T09:27:59.179Z,93376.00
2023-05-06T09:28:59.202Z,94304.00
2023-05-06T09:29:59.177Z,93248.00
2023-05-06T09:30:59.227Z,18432.00
2023-05-06T09:31:59.161Z,45120.00
2023-05-06T09:32:59.164Z,92512.00
2023-05-06T09:33:59.147Z,53056.00
2023-05-06T09:34:59.140Z,22368.00
2023-05-06T09:35:59.093Z,18464.00
2023-05-06T09:36:59.127Z,93920.00
2023-05-06T09:37:59.083Z,93728.00
2023-05-06T09:38:59.069Z,88992.00
2023-05-06T09:39:59.091Z,89408.00
2023-05-06T09:40:59.080Z,88480.00
2023-05-06T09:41:59.040Z,94176.00
2023-05-06T09:42:59.037Z,81280.00
2023-05-06T09:43:59.038Z,92608.00
2023-05-06T09:45:01.279Z,89984.00
2023-05-06T09:45:59.091Z,89920.00
2023-05-06T09:46:58.974Z,95520.00
2023-05-06T09:47:58.999Z,92448.00
2023-05-06T09:48:58.969Z,93152.00
2023-05-06T09:49:58.983Z,96128.00
2023-05-06T09:51:00.696Z,99872.00
2023-05-06T09:51:58.939Z,102112.00
2023-05-06T09:52:58.934Z,76672.00
2023-05-06T09:53:58.911Z,35584.00
2023-05-06T09:54:58.959Z,37344.00
2023-05-06T09:55:58.901Z,29920.00
2023-05-06T09:57:00.971Z,109632.00
2023-05-06T09:57:58.909Z,104736.00
2023-05-06T09:58:58.855Z,104384.00
2023-05-06T09:59:58.861Z,105344.00
2023-05-06T10:00:58.880Z,104576.00
2023-05-06T10:01:58.883Z,105344.00
2023-05-06T10:02:58.939Z,106240.00
2023-05-06T10:03:58.934Z,103040.00
2023-05-06T10:04:58.987Z,35456.00
2023-05-06T10:05:58.807Z,100320.00
2023-05-06T10:06:58.817Z,97632.00
2023-05-06T10:07:58.838Z,61792.00
2023-05-06T10:08:58.783Z,98944.00
2023-05-06T10:09:58.772Z,98560.00
2023-05-06T10:10:58.794Z,97728.00
2023-05-06T10:11:58.785Z,98208.00
2023-05-06T10:12:58.783Z,99424.00
2023-05-06T10:13:58.747Z,92576.00
2023-05-06T10:14:58.704Z,92896.00
2023-05-06T10:15:58.739Z,97728.00
2023-05-06T10:16:58.705Z,95744.00
2023-05-06T10:17:58.725Z,95968.00
2023-05-06T10:18:58.677Z,99232.00
2023-05-06T10:19:58.679Z,99584.00
2023-05-06T10:20:58.684Z,101568.00
2023-05-06T10:21:58.637Z,102848.00
2023-05-06T10:22:58.663Z,103008.00
2023-05-06T10:23:58.620Z,104960.00
2023-05-06T10:24:58.611Z,102816.00
2023-05-06T10:25:58.602Z,96704.00
2023-05-06T10:26:58.618Z,94496.00
2023-05-06T10:27:58.587Z,90336.00
2023-05-06T10:28:58.589Z,89280.00
2023-05-06T10:29:58.544Z,89856.00
2023-05-06T10:30:58.534Z,89088.00
2023-05-06T10:31:58.596Z,91136.00
2023-05-06T10:32:58.530Z,95136.00
2023-05-06T10:33:58.581Z,92960.00
2023-05-06T10:34:58.526Z,95808.00
2023-05-06T10:35:58.502Z,98112.00
2023-05-06T10:36:58.494Z,103168.00
2023-05-06T10:37:58.472Z,103360.00
2023-05-06T10:38:58.466Z,99968.00
2023-05-06T10:39:58.474Z,104064.00
2023-05-06T10:40:58.457Z,104064.00
2023-05-06T10:41:58.450Z,103552.00
2023-05-06T10:42:58.426Z,98688.00
2023-05-06T10:43:58.412Z,104320.00
2023-05-06T10:44:58.427Z,104608.00
2023-05-06T10:45:58.459Z,104928.00
2023-05-06T10:46:58.387Z,101632.00
2023-05-06T10:47:58.438Z,48832.00
2023-05-06T10:48:58.384Z,100064.00
2023-05-06T10:49:58.391Z,14112.00
2023-05-06T10:50:58.368Z,10388.00
2023-05-06T10:51:58.357Z,10972.00
2023-05-06T10:52:58.341Z,102784.00
2023-05-06T10:53:58.372Z,106592.00
2023-05-06T10:54:58.316Z,42080.00
2023-05-06T10:55:58.319Z,20480.00
2023-05-06T10:56:58.302Z,14160.00
2023-05-06T10:57:58.294Z,19104.00
2023-05-06T10:58:58.329Z,17920.00
2023-05-06T10:59:58.324Z,15064.00
2023-05-06T11:00:58.390Z,99968.00
2023-05-06T11:01:58.295Z,94304.00
2023-05-06T11:02:58.323Z,93888.00
2023-05-06T11:03:58.209Z,98464.00
2023-05-06T11:04:58.251Z,96608.00
2023-05-06T11:05:58.196Z,102208.00
2023-05-06T11:06:58.220Z,18880.00
2023-05-06T11:07:58.176Z,104928.00
2023-05-06T11:08:58.180Z,113632.00
2023-05-06T11:09:58.188Z,13452.00
2023-05-06T11:10:58.163Z,12784.00
2023-05-06T11:11:58.162Z,108096.00
2023-05-06T11:12:58.207Z,104704.00
2023-05-06T11:13:58.111Z,103072.00
2023-05-06T11:14:58.100Z,100352.00
2023-05-06T11:15:58.127Z,101088.00
2023-05-06T11:16:58.132Z,107776.00
2023-05-06T11:17:58.137Z,109600.00
2023-05-06T11:18:58.079Z,72704.00
2023-05-06T11:19:58.068Z,101536.00
2023-05-06T11:20:58.037Z,69824.00
2023-05-06T11:21:58.041Z,14912.00
2023-05-06T11:22:58.034Z,13296.00
2023-05-06T11:23:58.040Z,13748.00
2023-05-06T11:24:58.030Z,13264.00
2023-05-06T11:25:58.004Z,21440.00
2023-05-06T11:26:58.016Z,107552.00
2023-05-06T11:27:58.002Z,110912.00
2023-05-06T11:28:57.971Z,112896.00
2023-05-06T11:29:57.943Z,111808.00
2023-05-06T11:30:58.050Z,102400.00
2023-05-06T11:31:57.940Z,98528.00
2023-05-06T11:32:58.016Z,9504.00
2023-05-06T11:33:57.918Z,7368.00
2023-05-06T11:34:57.910Z,57184.00
2023-05-06T11:35:57.920Z,99808.00
2023-05-06T11:36:57.889Z,40448.00
2023-05-06T11:37:57.914Z,90912.00
2023-05-06T11:38:57.894Z,93216.00
2023-05-06T11:39:57.837Z,93536.00
2023-05-06T11:40:57.847Z,96160.00
2023-05-06T11:41:57.832Z,80672.00
2023-05-06T11:42:57.809Z,48800.00
2023-05-06T11:43:57.818Z,95808.00
2023-05-06T11:44:57.812Z,93952.00
2023-05-06T11:45:57.825Z,92576.00
2023-05-06T11:46:57.791Z,89632.00
2023-05-06T11:47:57.790Z,91168.00
2023-05-06T11:48:57.752Z,90528.00
2023-05-06T11:49:57.767Z,85376.00
2023-05-06T11:50:57.734Z,72864.00
2023-05-06T11:51:57.748Z,22528.00
2023-05-06T11:52:57.719Z,18240.00
2023-05-06T11:53:57.687Z,13216.00
2023-05-06T11:54:57.716Z,16792.00
2023-05-06T11:55:57.696Z,12652.00
2023-05-06T11:56:57.694Z,84512.00
2023-05-06T11:57:57.648Z,50176.00
2023-05-06T11:58:57.649Z,15264.00
2023-05-06T11:59:57.660Z,13364.00
2023-05-06T12:00:57.652Z,12520.00
2023-05-06T12:01:57.622Z,13800.00
2023-05-06T12:02:57.734Z,13664.00
2023-05-06T12:03:57.812Z,13128.00
2023-05-06T12:04:57.675Z,11712.00
2023-05-06T12:05:57.613Z,11712.00
2023-05-06T12:06:57.579Z,11364.00
2023-05-06T12:07:57.548Z,13116.00
2023-05-06T12:08:57.533Z,13340.00
2023-05-06T12:09:57.530Z,13572.00
2023-05-06T12:10:57.516Z,13048.00
2023-05-06T12:11:57.572Z,14676.00
2023-05-06T12:12:57.521Z,14048.00
2023-05-06T12:13:57.484Z,12988.00
2023-05-06T12:14:57.511Z,11396.00